Time;durP1;ratioP1;P1;durP2;ratioP2;P2;SDS_P1;SDS_P2;PMS_P1;PMS_P2;Temp;Humidity;BMP_temperature;BMP_pressure;BME280_temperature;BME280_humidity;BME280_pressure;Samples;Min_cycle;Max_cycle;Signal;HPM_P1;HPM_P2
2022/07/23 00:01:15;;;;;;;4.53;2.33;;;19.70;97.30;;;;;;5074671;28;20247;-85
2022/07/23 00:03:41;;;;;;;2.30;2.10;;;19.70;97.30;;;;;;5075449;28;20250;-86
2022/07/23 00:06:06;;;;;;;4.83;2.83;;;19.70;97.30;;;;;;5074813;28;20184;-86
2022/07/23 00:08:32;;;;;;;4.67;3.27;;;19.70;97.30;;;;;;5062515;28;20253;-86
2022/07/23 00:10:57;;;;;;;5.00;3.60;;;19.70;97.30;;;;;;5055086;28;20846;-86
2022/07/23 00:13:23;;;;;;;3.20;2.73;;;19.60;97.30;;;;;;5068578;28;20182;-86
2022/07/23 00:15:48;;;;;;;5.60;3.27;;;19.60;97.30;;;;;;5074774;28;20890;-86
2022/07/23 00:18:14;;;;;;;6.67;3.33;;;19.60;97.30;;;;;;5074796;28;20664;-85
2022/07/23 00:20:40;;;;;;;2.90;2.00;;;19.60;97.30;;;;;;5074990;28;20650;-86
2022/07/23 00:23:05;;;;;;;2.83;2.03;;;19.50;97.30;;;;;;5073701;28;20218;-85
2022/07/23 00:25:31;;;;;;;3.97;2.70;;;19.50;97.30;;;;;;5074915;28;20182;-86
2022/07/23 00:27:57;;;;;;;2.87;2.03;;;19.40;97.30;;;;;;5074556;28;20215;-86
2022/07/23 00:30:23;;;;;;;3.07;2.70;;;19.40;97.30;;;;;;5067181;28;20663;-86
2022/07/23 00:32:56;;;;;;;5.13;2.90;;;19.30;97.30;;;;;;5054238;28;20465;-85
2022/07/23 00:35:22;;;;;;;2.90;2.57;;;19.30;97.30;;;;;;5073735;28;20611;-85
2022/07/23 00:37:48;;;;;;;5.03;4.00;;;19.20;97.30;;;;;;5071183;28;20554;-86
2022/07/23 00:40:14;;;;;;;4.63;2.40;;;19.20;97.30;;;;;;5066648;28;21236;-84
2022/07/23 00:42:40;;;;;;;3.90;2.50;;;19.20;97.30;;;;;;5069655;28;20191;-86
2022/07/23 00:45:06;;;;;;;4.17;4.00;;;19.10;97.30;;;;;;5073719;28;20409;-86
2022/07/23 00:47:32;;;;;;;2.30;2.10;;;19.10;97.30;;;;;;5065578;28;20226;-85
2022/07/23 00:49:58;;;;;;;4.30;2.43;;;19.10;97.30;;;;;;5060306;28;20465;-86
2022/07/23 00:52:24;;;;;;;4.70;2.97;;;19.10;97.30;;;;;;5073363;28;20594;-85
2022/07/23 00:54:50;;;;;;;1.83;1.63;;;19.10;97.30;;;;;;5077144;28;20179;-86
2022/07/23 00:57:16;;;;;;;5.20;2.33;;;19.00;97.30;;;;;;5069031;28;20466;-86
2022/07/23 00:59:41;;;;;;;2.47;2.27;;;19.00;97.30;;;;;;5053110;28;20522;-86
2022/07/23 01:02:07;;;;;;;3.30;2.70;;;19.00;97.30;;;;;;5070579;28;20178;-85
2022/07/23 01:04:33;;;;;;;3.80;2.87;;;19.00;97.30;;;;;;5073311;28;20175;-85
2022/07/23 01:06:59;;;;;;;4.10;2.80;;;19.00;97.30;;;;;;5073110;28;20248;-85
2022/07/23 01:09:25;;;;;;;5.97;3.03;;;18.90;97.30;;;;;;5073295;28;20210;-85
2022/07/23 01:11:53;;;;;;;4.10;3.43;;;18.90;97.30;;;;;;5072922;28;21034;-84
2022/07/23 01:14:19;;;;;;;4.50;2.70;;;18.90;97.30;;;;;;5060336;28;20418;-85
2022/07/23 01:16:46;;;;;;;4.80;2.50;;;18.90;97.30;;;;;;5073277;28;20445;-85
2022/07/23 01:19:12;;;;;;;4.87;2.80;;;18.90;97.30;;;;;;5073415;28;20201;-86
2022/07/23 01:21:41;;;;;;;3.07;2.87;;;18.90;97.30;;;;;;5073366;28;20670;-85
2022/07/23 01:24:08;;;;;;;6.57;3.40;;;18.90;97.30;;;;;;5068718;28;20417;-85
2022/07/23 01:26:33;;;;;;;6.00;3.40;;;18.80;97.30;;;;;;5052889;28;20422;-86
2022/07/23 01:28:59;;;;;;;3.93;3.00;;;18.80;97.30;;;;;;5057501;28;20444;-86
2022/07/23 01:31:25;;;;;;;7.77;3.40;;;18.80;97.30;;;;;;5073042;28;20191;-86
2022/07/23 01:33:51;;;;;;;6.40;3.40;;;18.80;97.30;;;;;;5072519;28;20607;-86
2022/07/23 01:36:16;;;;;;;4.17;3.30;;;18.80;97.30;;;;;;5072659;28;20457;-85
2022/07/23 01:38:42;;;;;;;4.40;4.13;;;18.80;97.30;;;;;;5074031;28;20187;-85
2022/07/23 01:41:09;;;;;;;6.50;3.37;;;18.80;97.30;;;;;;5072831;28;20203;-85
2022/07/23 01:43:34;;;;;;;3.40;3.03;;;18.80;97.30;;;;;;5073814;28;20496;-87
2022/07/23 01:46:00;;;;;;;2.83;2.67;;;18.80;97.30;;;;;;5073180;28;20179;-86
2022/07/23 01:48:26;;;;;;;7.07;4.07;;;18.70;97.30;;;;;;5073385;28;20672;-86
2022/07/23 01:50:51;;;;;;;3.83;3.07;;;18.80;97.30;;;;;;5073199;28;20249;-87
2022/07/23 01:53:17;;;;;;;5.13;2.30;;;18.70;97.30;;;;;;5073547;28;20171;-87
2022/07/23 01:55:43;;;;;;;2.70;2.53;;;18.70;97.30;;;;;;5073821;28;20175;-87
2022/07/23 01:58:09;;;;;;;3.47;2.43;;;18.70;97.30;;;;;;5074828;28;20676;-87
2022/07/23 02:00:34;;;;;;;3.23;2.90;;;18.70;97.30;;;;;;5073345;28;20471;-88
2022/07/23 02:03:00;;;;;;;3.00;2.90;;;18.70;97.30;;;;;;5073124;28;20183;-87
2022/07/23 02:05:28;;;;;;;5.47;3.80;;;18.70;97.30;;;;;;5072995;28;20178;-87
2022/07/23 02:07:54;;;;;;;4.40;2.73;;;18.80;97.30;;;;;;5073142;28;20202;-87
2022/07/23 02:10:20;;;;;;;2.27;2.07;;;18.80;97.30;;;;;;5073125;28;20425;-87
2022/07/23 02:12:46;;;;;;;3.20;2.40;;;18.80;97.30;;;;;;5072702;28;20456;-87
2022/07/23 02:15:12;;;;;;;6.47;3.80;;;18.70;97.30;;;;;;5072994;28;20471;-87
2022/07/23 02:17:38;;;;;;;2.10;1.97;;;18.70;97.30;;;;;;5072567;28;20191;-87
2022/07/23 02:20:04;;;;;;;2.33;2.13;;;18.70;97.30;;;;;;5072897;28;20172;-87
2022/07/23 02:22:30;;;;;;;3.00;2.43;;;18.70;97.30;;;;;;5072737;28;20402;-87
2022/07/23 02:24:56;;;;;;;3.27;2.50;;;18.70;97.30;;;;;;5072327;28;20822;-86
2022/07/23 02:27:22;;;;;;;3.47;2.50;;;18.70;97.30;;;;;;5072879;28;20174;-88
2022/07/23 02:29:48;;;;;;;6.03;2.90;;;18.60;97.30;;;;;;5074398;28;20191;-86
2022/07/23 02:32:14;;;;;;;8.27;3.40;;;18.60;97.30;;;;;;5072269;28;20775;-87
2022/07/23 02:34:39;;;;;;;2.33;2.10;;;18.50;97.30;;;;;;5072603;28;20179;-87
2022/07/23 02:37:05;;;;;;;9.57;3.53;;;18.50;97.30;;;;;;5072256;28;20612;-87
2022/07/23 02:39:31;;;;;;;6.60;2.63;;;18.50;97.30;;;;;;5073801;28;20198;-87
2022/07/23 02:41:56;;;;;;;7.03;3.77;;;18.50;97.30;;;;;;5072807;28;20171;-87
2022/07/23 02:44:22;;;;;;;4.50;2.90;;;18.50;97.30;;;;;;5072847;28;20308;-87
2022/07/23 02:46:48;;;;;;;4.03;2.60;;;18.50;97.30;;;;;;5071944;28;20668;-87
2022/07/23 02:49:13;;;;;;;2.93;2.77;;;18.40;97.30;;;;;;5072255;28;20428;-87
2022/07/23 02:51:39;;;;;;;5.77;3.40;;;18.40;97.30;;;;;;5072053;28;20239;-87
2022/07/23 02:54:05;;;;;;;3.73;3.23;;;18.40;97.30;;;;;;5073624;28;20179;-87
2022/07/23 02:56:30;;;;;;;2.80;2.63;;;18.30;97.30;;;;;;5072063;28;20256;-86
2022/07/23 02:58:56;;;;;;;3.90;2.47;;;18.30;97.30;;;;;;5072006;28;20778;-87
2022/07/23 03:01:21;;;;;;;6.33;3.83;;;18.20;97.30;;;;;;5073655;28;20245;-87
2022/07/23 03:03:47;;;;;;;3.03;2.30;;;18.20;97.30;;;;;;5071986;28;20175;-87
2022/07/23 03:06:13;;;;;;;1.87;1.77;;;18.20;97.30;;;;;;5072302;28;20633;-87
2022/07/23 03:08:39;;;;;;;3.43;3.23;;;18.10;97.30;;;;;;5072195;28;20198;-87
2022/07/23 03:11:06;;;;;;;5.07;3.37;;;18.10;97.30;;;;;;5073270;28;20462;-87
2022/07/23 03:13:32;;;;;;;4.30;3.10;;;18.10;97.30;;;;;;5071961;28;20193;-87
2022/07/23 03:15:57;;;;;;;4.53;2.93;;;18.10;97.30;;;;;;5073467;28;20416;-87
2022/07/23 03:18:23;;;;;;;4.00;2.97;;;18.10;97.30;;;;;;5071760;28;20236;-86
2022/07/23 03:20:48;;;;;;;2.87;2.47;;;18.10;97.30;;;;;;5072716;28;20663;-87
2022/07/23 03:23:15;;;;;;;5.77;4.03;;;18.10;97.30;;;;;;5071881;28;20179;-86
2022/07/23 03:25:41;;;;;;;13.37;2.00;;;18.00;97.30;;;;;;5072230;28;20578;-87
2022/07/23 03:28:07;;;;;;;3.80;2.80;;;18.00;97.30;;;;;;5072354;28;20429;-87
2022/07/23 03:30:32;;;;;;;4.50;2.67;;;18.00;97.30;;;;;;5071921;28;20258;-86
2022/07/23 03:32:58;;;;;;;2.43;2.23;;;18.00;97.30;;;;;;5071850;28;20710;-86
2022/07/23 03:35:23;;;;;;;3.73;3.53;;;18.00;97.30;;;;;;5072011;28;20167;-86
2022/07/23 03:37:49;;;;;;;4.60;2.23;;;18.00;97.30;;;;;;5071552;28;20221;-86
2022/07/23 03:40:15;;;;;;;5.60;3.70;;;18.00;97.30;;;;;;5071836;28;20266;-86
2022/07/23 03:42:42;;;;;;;4.00;2.27;;;17.90;97.30;;;;;;5071636;28;20171;-87
2022/07/23 03:45:07;;;;;;;5.03;3.50;;;17.90;97.30;;;;;;5071585;28;20206;-85
2022/07/23 03:47:33;;;;;;;10.63;2.73;;;17.90;97.30;;;;;;5071685;28;20418;-86
2022/07/23 03:49:58;;;;;;;2.73;2.13;;;17.90;97.30;;;;;;5071568;28;20410;-86
2022/07/23 03:52:24;;;;;;;4.90;2.97;;;17.90;97.30;;;;;;5071434;28;20226;-86
2022/07/23 03:54:50;;;;;;;5.30;4.57;;;17.90;97.30;;;;;;5071803;28;20167;-86
2022/07/23 03:57:15;;;;;;;6.90;3.60;;;17.90;97.30;;;;;;5072995;28;20210;-87
2022/07/23 03:59:41;;;;;;;5.87;2.73;;;17.90;97.30;;;;;;5075295;28;20191;-86
2022/07/23 04:02:06;;;;;;;8.43;3.97;;;17.90;97.30;;;;;;5075269;28;20536;-86
2022/07/23 04:04:32;;;;;;;6.03;3.50;;;17.90;97.30;;;;;;5074978;28;20163;-86
2022/07/23 04:06:57;;;;;;;3.30;2.50;;;17.90;97.30;;;;;;5075351;28;20186;-86
2022/07/23 04:09:23;;;;;;;2.50;2.10;;;17.90;97.30;;;;;;5075100;28;20672;-85
2022/07/23 04:11:49;;;;;;;5.00;3.40;;;17.90;97.30;;;;;;5075017;28;20182;-86
2022/07/23 04:14:14;;;;;;;6.13;3.00;;;17.90;97.30;;;;;;5075033;28;20182;-86
2022/07/23 04:16:40;;;;;;;5.00;3.30;;;17.90;97.30;;;;;;5075923;28;20449;-85
2022/07/23 04:19:05;;;;;;;3.87;2.40;;;18.00;97.30;;;;;;5074780;28;20221;-85
2022/07/23 04:21:31;;;;;;;2.90;2.70;;;17.90;97.30;;;;;;5075040;28;20629;-86
2022/07/23 04:23:56;;;;;;;8.00;2.73;;;18.00;97.30;;;;;;5074775;28;20239;-89
2022/07/23 04:26:22;;;;;;;5.43;2.83;;;17.90;97.30;;;;;;5075187;28;20171;-89
2022/07/23 04:28:48;;;;;;;4.80;3.80;;;17.80;97.30;;;;;;5074921;28;20247;-87
2022/07/23 04:31:13;;;;;;;6.70;3.57;;;17.80;97.30;;;;;;5075242;28;20183;-87
2022/07/23 04:33:39;;;;;;;3.60;3.40;;;17.70;97.30;;;;;;5075042;28;20648;-87
2022/07/23 04:36:05;;;;;;;4.40;3.50;;;17.70;97.30;;;;;;5074523;28;20730;-86
2022/07/23 04:38:32;;;;;;;5.53;3.00;;;17.80;97.30;;;;;;5074511;28;20274;-86
2022/07/23 04:40:58;;;;;;;2.83;2.10;;;17.80;97.30;;;;;;5076216;28;20168;-86
2022/07/23 04:43:23;;;;;;;3.20;2.43;;;17.80;97.30;;;;;;5074287;28;20440;-87
2022/07/23 04:45:49;;;;;;;7.80;3.83;;;17.80;97.30;;;;;;5074560;28;20194;-87
2022/07/23 04:48:14;;;;;;;4.80;3.70;;;17.80;97.30;;;;;;5074260;28;20191;-87
2022/07/23 04:50:40;;;;;;;7.80;3.53;;;17.80;97.30;;;;;;5074279;28;20249;-86
2022/07/23 04:53:06;;;;;;;4.40;2.97;;;17.80;97.30;;;;;;5072850;28;20227;-86
2022/07/23 04:55:31;;;;;;;3.73;3.17;;;17.80;97.30;;;;;;5071135;28;20228;-89
2022/07/23 04:57:57;;;;;;;5.53;2.90;;;17.70;97.30;;;;;;5071240;28;20260;-89
2022/07/23 05:00:23;;;;;;;3.87;3.67;;;17.60;97.30;;;;;;5072268;28;20209;-89
2022/07/23 05:02:49;;;;;;;5.90;2.70;;;17.40;97.30;;;;;;5071592;28;20181;-90
2022/07/23 05:05:14;;;;;;;8.03;2.50;;;17.40;97.30;;;;;;5063348;28;20422;-90
2022/07/23 05:07:40;;;;;;;5.60;4.30;;;17.30;97.30;;;;;;5057919;28;20287;-89
2022/07/23 05:10:06;;;;;;;8.20;3.90;;;17.20;97.30;;;;;;5071267;28;20183;-90
2022/07/23 05:12:32;;;;;;;6.03;3.27;;;17.10;97.30;;;;;;5056767;28;20287;-89
2022/07/23 05:14:58;;;;;;;4.10;3.13;;;17.10;97.30;;;;;;5070503;28;20189;-90
2022/07/23 05:17:23;;;;;;;5.03;3.73;;;17.10;97.30;;;;;;5072271;28;21128;-89
2022/07/23 05:19:49;;;;;;;5.07;4.00;;;17.10;97.30;;;;;;5073073;28;20179;-89
2022/07/23 05:22:14;;;;;;;3.13;3.00;;;17.10;97.30;;;;;;5072803;28;20274;-89
2022/07/23 05:24:40;;;;;;;4.13;3.20;;;17.10;97.30;;;;;;5058911;28;20190;-90
2022/07/23 05:27:05;;;;;;;6.23;3.50;;;17.20;97.30;;;;;;5072430;28;20198;-90
2022/07/23 05:29:31;;;;;;;7.07;3.97;;;17.20;97.30;;;;;;5071869;28;20700;-90
2022/07/23 05:31:57;;;;;;;5.80;3.80;;;17.20;97.30;;;;;;5072038;28;20653;-91
2022/07/23 05:34:22;;;;;;;9.67;4.03;;;17.20;97.30;;;;;;5053205;28;20610;-92
2022/07/23 05:36:48;;;;;;;2.90;2.40;;;17.10;97.30;;;;;;5052489;28;20274;-91
2022/07/23 05:39:14;;;;;;;3.73;3.10;;;17.10;97.30;;;;;;5068221;28;20686;-91
2022/07/23 05:41:40;;;;;;;6.53;2.80;;;17.00;97.30;;;;;;5064119;28;20494;-90
2022/07/23 05:44:05;;;;;;;7.20;4.30;;;16.90;97.30;;;;;;5073269;28;20190;-90
2022/07/23 05:46:31;;;;;;;3.00;2.30;;;16.90;97.30;;;;;;5072865;28;20191;-90
2022/07/23 05:48:56;;;;;;;3.37;3.23;;;16.90;97.30;;;;;;5072376;28;20211;-89
2022/07/23 05:51:23;;;;;;;5.03;2.67;;;16.90;97.30;;;;;;5072434;28;20724;-90
2022/07/23 05:53:49;;;;;;;5.80;3.23;;;16.80;97.30;;;;;;5072929;28;20190;-90
2022/07/23 05:56:15;;;;;;;3.87;2.50;;;16.80;97.30;;;;;;5057600;28;20868;-88
2022/07/23 05:58:41;;;;;;;9.03;2.90;;;16.80;97.30;;;;;;5053236;28;20207;-89
2022/07/23 06:01:06;;;;;;;24.53;3.60;;;16.70;97.30;;;;;;5052336;28;20422;-89
2022/07/23 06:03:32;;;;;;;5.20;3.03;;;16.80;97.30;;;;;;5051684;28;20630;-89
2022/07/23 06:05:58;;;;;;;4.80;3.23;;;16.80;97.30;;;;;;5052416;28;20176;-90
2022/07/23 06:08:23;;;;;;;5.13;3.00;;;16.90;97.30;;;;;;5052435;28;20235;-90
2022/07/23 06:10:49;;;;;;;6.63;3.70;;;16.90;97.30;;;;;;5069213;28;20172;-89
2022/07/23 06:13:14;;;;;;;5.67;4.37;;;17.00;97.30;;;;;;5052821;28;20183;-89
2022/07/23 06:15:40;;;;;;;4.47;3.03;;;17.00;97.30;;;;;;5066862;28;20266;-89
2022/07/23 06:18:06;;;;;;;5.27;3.70;;;17.10;97.30;;;;;;5071578;28;20211;-89
2022/07/23 06:20:31;;;;;;;3.63;3.43;;;17.10;97.30;;;;;;5070285;28;20174;-89
2022/07/23 06:22:57;;;;;;;3.00;2.80;;;17.10;97.30;;;;;;5058242;28;20188;-89
2022/07/23 06:25:22;;;;;;;6.33;3.47;;;17.20;97.30;;;;;;5072338;28;20175;-89
2022/07/23 06:27:49;;;;;;;5.33;3.90;;;17.20;97.30;;;;;;5072751;28;20273;-89
2022/07/23 06:30:18;;;;;;;8.83;3.30;;;17.20;97.30;;;;;;5072525;28;20183;-88
2022/07/23 06:32:45;;;;;;;6.23;4.43;;;17.30;97.30;;;;;;5072196;28;20474;-88
2022/07/23 06:35:10;;;;;;;8.40;3.17;;;17.30;97.30;;;;;;5068127;28;20430;-89
2022/07/23 06:37:36;;;;;;;4.00;2.60;;;17.30;97.30;;;;;;5052241;28;20464;-88
2022/07/23 06:40:03;;;;;;;2.30;1.63;;;17.40;97.30;;;;;;5070204;28;20676;-88
2022/07/23 06:42:28;;;;;;;4.87;3.30;;;17.40;97.30;;;;;;5061682;28;20274;-88
2022/07/23 06:44:54;;;;;;;5.60;2.70;;;17.40;97.30;;;;;;5056697;28;20445;-88
2022/07/23 06:47:19;;;;;;;4.77;3.17;;;17.40;97.30;;;;;;5073242;28;20640;-87
2022/07/23 06:49:45;;;;;;;6.70;3.00;;;17.40;97.30;;;;;;5072128;28;20233;-88
2022/07/23 06:52:10;;;;;;;4.63;3.07;;;17.40;97.30;;;;;;5071657;28;20219;-88
2022/07/23 06:54:36;;;;;;;2.40;2.13;;;17.50;97.30;;;;;;5074213;28;20175;-88
2022/07/23 06:57:01;;;;;;;7.43;2.93;;;17.50;97.30;;;;;;5073358;28;20199;-87
2022/07/23 06:59:27;;;;;;;3.70;2.80;;;17.60;97.30;;;;;;5072890;28;20568;-88
2022/07/23 07:01:53;;;;;;;2.20;2.00;;;17.60;97.30;;;;;;5072713;28;20175;-87
2022/07/23 07:04:18;;;;;;;4.40;3.00;;;17.60;97.30;;;;;;5072555;28;20209;-87
2022/07/23 07:06:44;;;;;;;12.77;4.20;;;17.70;97.30;;;;;;5065374;28;20195;-87
2022/07/23 07:09:09;;;;;;;4.60;3.53;;;17.70;97.30;;;;;;5053337;28;20237;-88
2022/07/23 07:11:35;;;;;;;3.93;2.70;;;17.70;97.30;;;;;;5060550;28;20199;-87
2022/07/23 07:14:01;;;;;;;29.87;5.10;;;17.80;97.30;;;;;;5073091;28;20214;-87
2022/07/23 07:16:26;;;;;;;3.60;3.20;;;17.80;97.30;;;;;;5064945;28;20651;-87
2022/07/23 07:18:52;;;;;;;5.87;2.77;;;17.80;97.30;;;;;;5066939;28;20695;-87
2022/07/23 07:21:17;;;;;;;3.57;2.50;;;17.80;97.30;;;;;;5074126;28;20541;-87
2022/07/23 07:23:43;;;;;;;5.70;3.93;;;17.80;97.30;;;;;;5058310;28;20492;-87
2022/07/23 07:26:08;;;;;;;3.00;2.53;;;17.90;97.30;;;;;;5052475;28;20232;-87
2022/07/23 07:28:34;;;;;;;3.10;2.83;;;17.90;97.30;;;;;;5054808;28;20196;-87
2022/07/23 07:31:00;;;;;;;2.80;2.17;;;17.90;97.30;;;;;;5072252;28;20587;-86
2022/07/23 07:33:25;;;;;;;4.10;2.73;;;17.90;97.30;;;;;;5075674;28;20205;-87
2022/07/23 07:35:51;;;;;;;4.43;3.50;;;17.90;97.30;;;;;;5067758;28;20217;-86
2022/07/23 07:38:16;;;;;;;8.00;2.67;;;17.90;97.30;;;;;;5055094;28;20578;-88
2022/07/23 07:40:42;;;;;;;5.67;2.10;;;17.90;97.30;;;;;;5075859;28;20629;-85
2022/07/23 07:43:08;;;;;;;5.00;4.23;;;17.90;97.30;;;;;;5075642;28;20270;-85
2022/07/23 07:45:33;;;;;;;8.13;4.30;;;18.00;97.30;;;;;;5075531;28;20206;-87
2022/07/23 07:47:59;;;;;;;3.77;3.43;;;18.00;97.30;;;;;;5075517;28;20199;-87
2022/07/23 07:50:25;;;;;;;4.30;3.23;;;18.10;97.30;;;;;;5074501;28;20581;-88
2022/07/23 07:52:50;;;;;;;7.13;4.00;;;18.10;97.30;;;;;;5075008;28;20286;-85
2022/07/23 07:55:16;;;;;;;13.83;5.63;;;18.20;97.30;;;;;;5074323;28;20186;-85
2022/07/23 07:57:42;;;;;;;8.50;4.70;;;18.20;97.30;;;;;;5073895;28;20273;-87
2022/07/23 08:00:10;;;;;;;6.13;5.30;;;18.20;97.30;;;;;;5069053;28;20237;-85
2022/07/23 08:02:50;;;;;;;7.50;5.03;;;18.20;97.30;;;;;;5068433;28;20171;-87
2022/07/23 08:05:20;;;;;;;8.53;3.10;;;18.20;97.30;;;;;;5074125;28;20433;-87
2022/07/23 08:07:46;;;;;;;2.90;2.53;;;18.30;97.30;;;;;;5073438;28;20532;-87
2022/07/23 08:10:12;;;;;;;3.00;2.80;;;18.40;97.30;;;;;;5073381;28;20958;-85
2022/07/23 08:12:44;;;;;;;4.40;3.20;;;18.50;97.30;;;;;;5073068;28;20175;-84
2022/07/23 08:15:10;;;;;;;3.93;3.43;;;18.50;97.30;;;;;;5073575;28;20179;-88
2022/07/23 08:17:37;;;;;;;6.87;5.33;;;18.50;97.30;;;;;;5061350;28;20457;-87
2022/07/23 08:20:07;;;;;;;3.57;3.37;;;18.60;97.30;;;;;;5074644;28;20405;-88
2022/07/23 08:22:49;;;;;;;7.13;3.70;;;18.60;97.30;;;;;;5074171;28;20425;-88
2022/07/23 08:25:16;;;;;;;6.00;4.00;;;18.70;97.30;;;;;;5074240;28;20422;-88
2022/07/23 08:27:41;;;;;;;8.30;3.03;;;18.80;97.30;;;;;;5073553;28;20426;-88
2022/07/23 08:30:07;;;;;;;4.93;3.20;;;18.80;97.30;;;;;;5072820;28;20413;-87
2022/07/23 08:32:33;;;;;;;7.90;3.40;;;18.80;97.30;;;;;;5073773;28;20595;-87
2022/07/23 08:34:59;;;;;;;9.30;4.30;;;18.90;97.30;;;;;;5074011;28;20453;-88
2022/07/23 08:37:24;;;;;;;6.43;4.80;;;19.00;97.30;;;;;;5073509;28;20218;-88
2022/07/23 08:39:50;;;;;;;4.30;3.77;;;19.10;97.30;;;;;;5074031;28;20182;-87
2022/07/23 08:42:16;;;;;;;5.00;3.50;;;19.10;97.30;;;;;;5074362;28;20228;-87
2022/07/23 08:44:45;;;;;;;6.10;3.80;;;19.20;97.30;;;;;;5072832;28;20210;-88
2022/07/23 08:47:11;;;;;;;8.53;3.87;;;19.20;97.30;;;;;;5062312;28;20678;-88
2022/07/23 08:49:38;;;;;;;3.50;2.77;;;19.20;97.30;;;;;;5053870;28;20952;-86
2022/07/23 08:52:05;;;;;;;6.97;4.30;;;19.20;97.30;;;;;;5052833;28;20474;-87
2022/07/23 08:54:31;;;;;;;6.97;3.47;;;19.10;97.30;;;;;;5053553;28;20406;-87
2022/07/23 08:56:57;;;;;;;3.77;3.60;;;19.10;97.30;;;;;;5053604;28;20522;-89
2022/07/23 08:59:23;;;;;;;7.87;3.23;;;19.10;97.30;;;;;;5053406;28;20430;-88
2022/07/23 09:01:48;;;;;;;15.00;5.17;;;19.20;97.30;;;;;;5054202;28;20176;-86
2022/07/23 09:04:14;;;;;;;11.30;5.60;;;19.20;97.30;;;;;;5068746;28;20179;-86
2022/07/23 09:06:39;;;;;;;9.30;5.33;;;19.10;97.30;;;;;;5075052;28;20262;-88
2022/07/23 09:09:19;;;;;;;6.47;4.90;;;19.10;97.30;;;;;;5073934;28;20249;-86
2022/07/23 09:12:03;;;;;;;10.33;3.77;;;19.20;97.30;;;;;;5073567;28;20719;-87
2022/07/23 09:14:44;;;;;;;12.83;5.23;;;19.10;97.30;;;;;;5073682;28;20410;-86
2022/07/23 09:17:17;;;;;;;8.10;4.90;;;19.10;97.30;;;;;;5059810;28;20469;-87
2022/07/23 09:19:44;;;;;;;8.23;5.33;;;19.00;97.30;;;;;;5054046;28;20509;-88
2022/07/23 09:22:26;;;;;;;5.60;4.53;;;19.00;97.30;;;;;;5053697;28;20505;-87
2022/07/23 09:25:13;;;;;;;6.87;5.27;;;18.90;97.30;;;;;;5053983;28;20986;-88
2022/07/23 09:27:50;;;;;;;7.63;4.53;;;18.90;97.30;;;;;;5053917;28;20410;-88
2022/07/23 09:30:16;;;;;;;10.00;3.47;;;18.90;97.30;;;;;;5053402;28;20433;-88
2022/07/23 09:32:42;;;;;;;7.10;4.47;;;18.90;97.30;;;;;;5053846;28;20421;-87
2022/07/23 09:35:08;;;;;;;7.57;5.33;;;18.90;97.30;;;;;;5053585;28;20422;-87
2022/07/23 09:37:34;;;;;;;6.13;4.20;;;18.80;97.30;;;;;;5053657;28;20565;-87
2022/07/23 09:40:05;;;;;;;10.97;5.43;;;18.80;97.30;;;;;;5054169;28;20481;-88
2022/07/23 09:42:31;;;;;;;9.03;4.57;;;18.80;97.30;;;;;;5053833;28;20490;-88
2022/07/23 09:44:58;;;;;;;10.60;4.67;;;18.80;97.30;;;;;;5053502;28;20442;-87
2022/07/23 09:47:27;;;;;;;6.03;5.73;;;18.80;97.30;;;;;;5053649;28;20594;-87
2022/07/23 09:50:11;;;;;;;10.00;3.70;;;18.90;97.30;;;;;;5053552;28;20956;-88
2022/07/23 09:52:48;;;;;;;15.33;5.63;;;18.90;97.30;;;;;;5053452;28;20507;-88
2022/07/23 09:55:15;;;;;;;4.80;3.47;;;18.90;97.30;;;;;;5053639;28;20824;-89
2022/07/23 09:57:45;;;;;;;11.93;4.37;;;18.90;97.30;;;;;;5053279;28;20493;-87
2022/07/23 10:00:12;;;;;;;8.67;4.30;;;18.90;97.30;;;;;;5053632;28;20406;-88
2022/07/23 10:02:39;;;;;;;6.83;5.40;;;18.90;97.30;;;;;;5053323;28;20505;-87
2022/07/23 10:05:06;;;;;;;5.60;3.83;;;18.90;97.30;;;;;;5054755;28;20424;-87
2022/07/23 10:07:36;;;;;;;5.57;2.93;;;18.90;97.30;;;;;;5053154;28;20513;-88
2022/07/23 10:10:03;;;;;;;6.80;5.77;;;18.90;97.30;;;;;;5053636;28;20846;-87
2022/07/23 10:15:13;;;;;;;5.03;3.67;;;18.90;97.30;;;;;;5054792;28;20768;-88
2022/07/23 10:17:38;;;;;;;4.90;3.17;;;18.90;97.30;;;;;;5054142;28;20487;-87
2022/07/23 10:20:05;;;;;;;10.13;6.23;;;18.90;97.30;;;;;;5053218;28;20226;-88
2022/07/23 10:22:37;;;;;;;9.23;4.40;;;18.90;97.30;;;;;;5053263;28;20180;-87
2022/07/23 10:25:30;;;;;;;8.47;6.73;;;19.00;97.30;;;;;;5053323;28;20441;-88
2022/07/23 10:28:16;;;;;;;6.67;4.93;;;19.10;97.30;;;;;;5052786;28;20474;-87
2022/07/23 10:31:09;;;;;;;6.70;4.23;;;19.10;97.30;;;;;;5053025;28;20915;-88
2022/07/23 10:34:04;;;;;;;10.60;4.90;;;19.20;97.30;;;;;;5052834;28;20480;-88
2022/07/23 10:36:42;;;;;;;9.90;5.30;;;19.20;97.30;;;;;;5052564;28;20545;-87
2022/07/23 10:39:34;;;;;;;5.90;4.20;;;19.30;97.30;;;;;;5053982;28;20789;-88
2022/07/23 10:42:14;;;;;;;4.83;2.50;;;19.30;97.30;;;;;;5052331;28;20422;-87
2022/07/23 10:44:47;;;;;;;8.97;5.00;;;19.40;97.30;;;;;;5052848;28;20499;-87
2022/07/23 10:49:49;;;;;;;13.47;5.53;;;19.50;97.30;;;;;;5054274;28;20927;-87
2022/07/23 10:52:19;;;;;;;5.60;3.97;;;19.50;97.30;;;;;;5052455;28;20972;-87
2022/07/23 10:54:46;;;;;;;22.37;4.13;;;19.50;97.30;;;;;;5052743;28;20422;-87
2022/07/23 10:57:12;;;;;;;7.43;4.83;;;19.60;97.30;;;;;;5052391;28;20826;-86
2022/07/23 11:00:00;;;;;;;6.90;3.00;;;19.70;97.30;;;;;;5052501;28;20513;-88
2022/07/23 11:02:29;;;;;;;8.30;4.00;;;19.80;97.30;;;;;;5052521;28;20434;-88
2022/07/23 11:04:59;;;;;;;9.03;5.83;;;19.90;97.30;;;;;;5052844;28;20504;-88
2022/07/23 11:07:25;;;;;;;4.80;3.27;;;20.00;97.30;;;;;;5054665;28;20407;-88
2022/07/23 11:09:51;;;;;;;12.20;5.97;;;20.00;97.30;;;;;;5056910;28;20514;-88
2022/07/23 11:12:29;;;;;;;9.23;4.90;;;20.00;97.30;;;;;;5056882;28;20179;-89
2022/07/23 11:15:14;;;;;;;10.47;6.07;;;20.00;97.30;;;;;;5056295;28;20410;-88
2022/07/23 11:17:43;;;;;;;7.70;4.53;;;20.00;97.30;;;;;;5056085;28;20458;-88
2022/07/23 11:20:13;;;;;;;8.67;6.70;;;20.00;97.30;;;;;;5056339;28;20440;-88
2022/07/23 11:22:44;;;;;;;8.70;5.50;;;20.00;97.30;;;;;;5056447;28;20490;-88
2022/07/23 11:25:12;;;;;;;10.00;6.33;;;19.90;97.30;;;;;;5056095;28;20414;-86
2022/07/23 11:27:44;;;;;;;5.50;3.50;;;19.90;97.30;;;;;;5055961;28;20406;-88
2022/07/23 11:30:30;;;;;;;18.13;6.57;;;19.90;97.30;;;;;;5056036;28;20414;-87
2022/07/23 11:33:08;;;;;;;6.27;4.60;;;19.90;97.30;;;;;;5055941;28;20453;-87
2022/07/23 11:35:39;;;;;;;7.20;5.33;;;19.90;97.30;;;;;;5055848;28;20508;-87
2022/07/23 11:38:06;;;;;;;13.97;5.10;;;19.90;97.30;;;;;;5055452;28;20466;-88
2022/07/23 11:40:32;;;;;;;12.30;6.23;;;20.00;97.30;;;;;;5056152;28;20406;-87
2022/07/23 11:43:07;;;;;;;16.63;5.30;;;20.00;97.30;;;;;;5055626;28;20406;-87
2022/07/23 11:45:45;;;;;;;9.70;6.30;;;20.10;97.30;;;;;;5056113;28;20409;-88
2022/07/23 11:48:21;;;;;;;12.17;5.87;;;20.20;97.30;;;;;;5057004;28;20437;-88
2022/07/23 11:50:47;;;;;;;7.53;5.23;;;20.20;97.30;;;;;;5055520;28;20475;-87
2022/07/23 11:53:13;;;;;;;10.17;5.50;;;20.30;97.30;;;;;;5055568;28;20421;-87
2022/07/23 11:55:39;;;;;;;7.77;5.37;;;20.40;97.30;;;;;;5055866;28;20645;-89
2022/07/23 11:58:05;;;;;;;7.73;6.03;;;20.50;97.30;;;;;;5055910;28;20576;-88
2022/07/23 12:00:32;;;;;;;8.13;4.60;;;20.60;97.30;;;;;;5055557;28;20221;-87
2022/07/23 12:03:01;;;;;;;5.97;5.00;;;20.70;97.30;;;;;;5055510;28;20421;-87
2022/07/23 12:05:32;;;;;;;7.50;4.60;;;20.80;97.30;;;;;;5055672;28;20410;-88
2022/07/23 12:07:59;;;;;;;8.30;4.97;;;20.90;97.30;;;;;;5055316;28;20430;-87
2022/07/23 12:10:30;;;;;;;8.17;4.93;;;21.00;97.30;;;;;;5055255;28;20924;-88
2022/07/23 12:13:01;;;;;;;8.00;5.90;;;21.10;97.30;;;;;;5055270;28;20418;-86
2022/07/23 12:15:31;;;;;;;8.10;5.47;;;21.30;97.30;;;;;;5055198;28;20406;-88
2022/07/23 12:17:57;;;;;;;5.63;4.27;;;21.40;97.30;;;;;;5053532;28;20473;-88
2022/07/23 12:20:27;;;;;;;12.97;4.33;;;21.40;97.30;;;;;;5054483;28;20414;-87
2022/07/23 12:22:57;;;;;;;4.63;4.33;;;21.50;97.30;;;;;;5054970;28;20410;-87
2022/07/23 12:25:25;;;;;;;5.20;4.60;;;21.50;97.30;;;;;;5054875;28;20418;-88
2022/07/23 12:28:01;;;;;;;8.33;4.97;;;21.50;97.30;;;;;;5054970;28;20518;-87
2022/07/23 12:30:39;;;;;;;7.20;4.57;;;21.50;97.30;;;;;;5055386;28;20510;-87
2022/07/23 12:33:07;;;;;;;22.63;6.57;;;21.60;97.30;;;;;;5055097;28;20501;-88
2022/07/23 12:35:34;;;;;;;5.37;5.10;;;21.60;97.30;;;;;;5055819;28;20438;-88
2022/07/23 12:38:03;;;;;;;7.50;4.50;;;21.60;97.30;;;;;;5054619;28;21025;-87
2022/07/23 12:40:41;;;;;;;7.60;5.23;;;21.50;97.30;;;;;;5054614;28;20417;-87
2022/07/23 12:43:20;;;;;;;6.63;5.17;;;21.50;97.30;;;;;;5055111;28;20468;-88
2022/07/23 12:45:50;;;;;;;6.57;3.40;;;21.50;97.30;;;;;;5054676;28;20399;-88
2022/07/23 12:48:22;;;;;;;6.40;4.97;;;21.60;97.30;;;;;;5054702;28;20438;-88
2022/07/23 12:50:58;;;;;;;8.77;5.13;;;21.70;97.30;;;;;;5054665;28;20471;-87
2022/07/23 12:53:27;;;;;;;7.33;4.33;;;21.80;97.30;;;;;;5054662;28;20782;-88